KMHR/MHR METAR and TAF weather

Enter ICAO airport designator
Station Type Date Time Source
KMHR METAR 2021/09/28 15:55 UTC NOAA

KMHR 281555Z AUTO 34014KT 10SM CLR 15/06 A3002 RMK A01


Station Type Date Time Source
KMHR Decoded METAR 2021/09/28 15:55 UTC NOAA

Sacramento, Sacramento Mather Airport, CA, United States (KMHR) 38-33N 121-18W
Sep 28, 2021 - 11:55 AM EDT / 2021.09.28 1555 UTC
Wind: from the NNW (340 degrees) at 16 MPH (14 KT):0
Visibility: 10 mile(s):0
Sky conditions: clear
Temperature: 59 F (15 C)
Dew Point: 42 F (6 C)
Relative Humidity: 54%
Pressure (altimeter): 30.02 in. Hg (1016 hPa)
ob: KMHR 281555Z AUTO 34014KT 10SM CLR 15/06 A3002 RMK A01
cycle: 16

Station Type Date Time Source
KMHR TAF 2021/09/28 12:22 UTC NOAA

TAF KMHR 281120Z 2812/2912 33005KT P6SM SKC
FM281700 33015G22KT P6SM SKC
FM290000 33008KT P6SM SKC

Example: see airport list